X  Tanca Dades meteorològiques de l'aviació METAR     LYNI Nis Airport
Temperatura
7°C Temperatura
3°C Rosada
76% Humitat



Vent
13 KM/H
8 MPH
4 M/S
7 NUS



80°
E
Condicions actuals

Parcialment ennuvolat Parcialment ennuvolat
Pressió 1024.92 (hPa) - 30.27 (inHg)
Visibilitat 6.2 (milla) - 10 (km)
Aeroport
Codi aeroport LYNI

Ubicació: Nis Airport
Distància: 63 (km)

Metar:
LYNI 050400Z 08007KT 040V100 9999 FEW017 SCT037 07/03 Q1025 NOSIG

Temps: 05-12-2022 05:00 CET